createdAt,value
2022-09-28T00:03:04.105Z,10.74
2022-09-28T00:08:06.155Z,10.72
2022-09-28T00:13:08.242Z,10.71
2022-09-28T00:18:13.243Z,10.72
2022-09-28T00:23:16.315Z,10.71
2022-09-28T00:28:19.633Z,10.73
2022-09-28T00:33:23.267Z,10.73
2022-09-28T00:38:28.864Z,10.73
2022-09-28T00:43:30.860Z,10.71
2022-09-28T00:48:40.402Z,10.67
2022-09-28T00:53:44.495Z,10.64
2022-09-28T00:58:50.462Z,10.61
2022-09-28T01:03:53.724Z,10.60
2022-09-28T01:08:58.715Z,10.59
2022-09-28T01:14:01.541Z,10.57
2022-09-28T01:19:24.992Z,10.55
2022-09-28T01:24:46.402Z,10.53
2022-09-28T01:30:02.482Z,10.52
2022-09-28T01:35:11.442Z,10.53
2022-09-28T01:40:15.944Z,10.55
2022-09-28T01:45:38.528Z,10.59
2022-09-28T01:50:44.316Z,10.59
2022-09-28T01:55:55.506Z,10.60
2022-09-28T02:01:03.602Z,10.62
2022-09-28T02:06:41.283Z,10.66
2022-09-28T02:11:50.597Z,10.65
2022-09-28T02:16:54.644Z,10.65
2022-09-28T02:22:23.584Z,10.64
2022-09-28T02:28:04.424Z,10.63
2022-09-28T02:33:16.886Z,10.61
2022-09-28T02:38:19.582Z,10.58
2022-09-28T02:43:46.058Z,10.56
2022-09-28T02:49:26.047Z,10.54
2022-09-28T02:55:06.044Z,10.51
2022-09-28T03:00:17.585Z,10.47
2022-09-28T03:05:56.532Z,10.43
2022-09-28T03:11:34.156Z,10.40
2022-09-28T03:16:37.207Z,10.31
2022-09-28T03:21:39.644Z,10.24
2022-09-28T03:26:41.643Z,10.17
2022-09-28T03:31:45.002Z,10.10
2022-09-28T03:36:47.262Z,10.04
2022-09-28T03:41:49.118Z,10.01
2022-09-28T03:46:52.971Z,10.04
2022-09-28T03:51:55.003Z,10.09
2022-09-28T03:56:59.330Z,10.15
2022-09-28T04:02:01.358Z,10.22
2022-09-28T04:07:03.519Z,10.29
2022-09-28T04:12:06.458Z,10.30
2022-09-28T04:17:08.344Z,10.29
2022-09-28T04:22:10.457Z,10.25
2022-09-28T04:27:32.276Z,10.23
2022-09-28T04:32:35.909Z,10.22
2022-09-28T04:37:37.903Z,10.19
2022-09-28T04:42:39.752Z,10.10
2022-09-28T04:47:41.593Z,10.03
2022-09-28T04:52:56.343Z,9.99
2022-09-28T04:58:04.244Z,9.96
2022-09-28T05:03:06.882Z,9.92
2022-09-28T05:08:35.732Z,9.91
2022-09-28T05:13:43.567Z,9.93
2022-09-28T05:18:47.389Z,9.96
2022-09-28T05:23:49.377Z,10.00
2022-09-28T05:28:51.376Z,10.03
2022-09-28T05:33:53.771Z,10.00
2022-09-28T05:38:55.624Z,9.92
2022-09-28T05:43:58.271Z,9.91
2022-09-28T05:49:00.488Z,9.93
2022-09-28T05:54:05.919Z,9.95
2022-09-28T05:59:12.228Z,9.99
2022-09-28T06:04:16.262Z,9.92
2022-09-28T06:09:23.826Z,9.92
2022-09-28T06:14:53.504Z,9.97
2022-09-28T06:19:59.367Z,10.04
2022-09-28T06:25:08.966Z,10.10
2022-09-28T06:30:11.603Z,10.11
2022-09-28T06:35:15.531Z,10.16
2022-09-28T06:40:17.706Z,10.21
2022-09-28T06:45:25.987Z,10.24
2022-09-28T06:51:00.902Z,10.33
2022-09-28T06:56:16.772Z,10.36
2022-09-28T07:01:20.111Z,10.42
2022-09-28T07:06:47.817Z,10.49
2022-09-28T07:12:13.497Z,10.53
2022-09-28T07:17:30.036Z,10.52
2022-09-28T07:22:42.732Z,10.53
2022-09-28T07:27:55.627Z,10.58
2022-09-28T07:33:17.962Z,10.65
2022-09-28T07:38:34.435Z,10.69
2022-09-28T07:43:36.636Z,10.71
2022-09-28T07:48:41.094Z,10.73
2022-09-28T07:53:58.462Z,10.80
2022-09-28T07:59:19.006Z,10.85
2022-09-28T08:04:43.879Z,10.89
2022-09-28T08:09:46.814Z,10.94
2022-09-28T08:15:14.488Z,10.94
2022-09-28T08:20:57.604Z,10.89
2022-09-28T08:26:00.218Z,10.83
2022-09-28T08:31:02.172Z,10.76
2022-09-28T08:36:07.020Z,10.71
2022-09-28T08:41:39.373Z,10.70
2022-09-28T08:47:05.416Z,10.66
2022-09-28T08:52:26.092Z,10.61
2022-09-28T08:58:17.697Z,10.57
2022-09-28T09:03:34.255Z,10.56
2022-09-28T09:09:22.380Z,10.57
2022-09-28T09:14:43.184Z,10.58
2022-09-28T09:19:58.807Z,10.63
2022-09-28T09:25:21.609Z,10.64
2022-09-28T09:30:31.818Z,10.58
2022-09-28T09:36:15.037Z,10.55
2022-09-28T09:42:11.906Z,10.47
2022-09-28T09:47:53.844Z,10.40
2022-09-28T09:53:13.271Z,10.41
2022-09-28T09:58:26.091Z,10.48
2022-09-28T10:03:39.882Z,10.51
2022-09-28T10:08:58.860Z,10.56
2022-09-28T10:14:02.171Z,10.70
2022-09-28T10:19:14.351Z,10.69
2022-09-28T10:24:56.965Z,10.73
2022-09-28T10:30:08.617Z,10.80
2022-09-28T10:35:20.563Z,10.87
2022-09-28T10:40:30.493Z,10.97
2022-09-28T10:45:37.715Z,11.01
2022-09-28T10:50:41.259Z,11.06
2022-09-28T10:56:05.492Z,11.11
2022-09-28T11:01:16.816Z,11.16
2022-09-28T11:06:31.217Z,11.17
2022-09-28T11:11:41.833Z,11.20
2022-09-28T11:16:44.890Z,11.21
2022-09-28T11:21:47.579Z,11.16
2022-09-28T11:26:56.606Z,11.16
2022-09-28T11:32:06.382Z,11.16
2022-09-28T11:37:46.182Z,11.21
2022-09-28T11:43:09.512Z,11.26
2022-09-28T11:48:16.678Z,11.24
2022-09-28T11:53:38.979Z,11.23
2022-09-28T11:58:45.081Z,11.15
2022-09-28T12:04:05.749Z,11.15
2022-09-28T12:09:22.787Z,11.22
2022-09-28T12:14:42.486Z,11.27
2022-09-28T12:20:15.654Z,11.36
2022-09-28T12:25:22.655Z,11.44
2022-09-28T12:30:26.564Z,11.48
2022-09-28T12:35:44.123Z,11.46
2022-09-28T12:41:07.181Z,11.44
2022-09-28T12:46:12.885Z,11.49
2022-09-28T12:51:26.793Z,11.50
2022-09-28T12:56:40.787Z,11.50
2022-09-28T13:01:59.902Z,11.49
2022-09-28T13:07:28.690Z,11.41
2022-09-28T13:12:39.045Z,11.39
2022-09-28T13:17:56.263Z,11.41
2022-09-28T13:23:25.702Z,11.42
2022-09-28T13:28:29.771Z,11.39
2022-09-28T13:33:47.366Z,11.46
2022-09-28T13:38:49.965Z,11.46
2022-09-28T13:44:16.712Z,11.47
2022-09-28T13:49:36.157Z,11.48
2022-09-28T13:55:00.604Z,11.53
2022-09-28T14:00:11.957Z,11.58
2022-09-28T14:05:22.820Z,11.58
2022-09-28T14:10:52.161Z,11.59
2022-09-28T14:16:15.306Z,11.53
2022-09-28T14:21:29.237Z,11.46
2022-09-28T14:26:48.073Z,11.40
2022-09-28T14:31:50.122Z,11.35
2022-09-28T14:37:10.924Z,11.35
2022-09-28T14:42:17.564Z,11.26
2022-09-28T14:47:37.258Z,11.24
2022-09-28T14:52:43.646Z,11.30
2022-09-28T14:57:52.739Z,11.30
2022-09-28T15:03:00.100Z,11.27
2022-09-28T15:08:02.701Z,11.23
2022-09-28T15:13:17.135Z,11.19
2022-09-28T15:18:18.883Z,11.15
2022-09-28T15:23:26.797Z,11.13
2022-09-28T15:28:28.596Z,11.09
2022-09-28T15:33:51.491Z,11.02
2022-09-28T15:39:01.254Z,10.99
2022-09-28T15:44:29.411Z,11.01
2022-09-28T15:49:58.636Z,11.01
2022-09-28T15:55:02.575Z,11.00
2022-09-28T16:00:20.471Z,11.02
2022-09-28T16:05:52.583Z,11.03
2022-09-28T16:11:24.400Z,11.03
2022-09-28T16:16:51.868Z,11.04
2022-09-28T16:21:57.063Z,11.05
2022-09-28T16:27:03.457Z,11.04
2022-09-28T16:32:41.577Z,11.04
2022-09-28T16:37:43.608Z,11.04
2022-09-28T16:42:49.097Z,11.02
2022-09-28T16:47:52.501Z,11.02
2022-09-28T16:53:33.963Z,11.01
2022-09-28T16:58:38.527Z,10.97
2022-09-28T17:03:47.002Z,10.95
2022-09-28T17:08:48.937Z,10.94
2022-09-28T17:13:51.934Z,10.93
2022-09-28T17:18:53.957Z,10.93
2022-09-28T17:23:55.775Z,10.92
2022-09-28T17:28:59.444Z,10.93
2022-09-28T17:34:01.307Z,10.92
2022-09-28T17:39:03.764Z,10.93
2022-09-28T17:44:06.556Z,10.90
2022-09-28T17:49:11.791Z,10.85
2022-09-28T17:54:16.823Z,10.78
2022-09-28T17:59:19.274Z,10.69
2022-09-28T18:04:50.723Z,10.60
2022-09-28T18:09:43.802Z,10.51
2022-09-28T18:14:47.167Z,10.44
2022-09-28T18:19:49.222Z,10.37
2022-09-28T18:24:51.042Z,10.32
2022-09-28T18:29:52.910Z,10.26
2022-09-28T18:34:54.783Z,10.24
2022-09-28T18:39:56.877Z,10.21
2022-09-28T18:44:58.686Z,10.19
2022-09-28T18:50:00.842Z,10.17
2022-09-28T18:55:02.746Z,10.17
2022-09-28T19:00:06.226Z,10.13
2022-09-28T19:05:08.669Z,10.11
2022-09-28T19:10:10.753Z,10.06
2022-09-28T19:15:13.290Z,10.04
2022-09-28T19:20:15.809Z,9.99
2022-09-28T19:25:17.738Z,9.95
2022-09-28T19:30:19.659Z,9.92
2022-09-28T19:35:21.578Z,9.90
2022-09-28T19:40:23.401Z,9.87
2022-09-28T19:45:25.559Z,9.83
2022-09-28T19:50:27.354Z,9.79
2022-09-28T19:55:35.526Z,9.74
2022-09-28T20:00:37.356Z,9.69
2022-09-28T20:05:41.594Z,9.65
2022-09-28T20:10:52.523Z,9.64
2022-09-28T20:15:54.381Z,9.64
2022-09-28T20:21:07.159Z,9.63
2022-09-28T20:26:09.415Z,9.62
2022-09-28T20:31:15.807Z,9.59
2022-09-28T20:36:20.751Z,9.56
2022-09-28T20:41:24.066Z,9.54
2022-09-28T20:46:26.531Z,9.53
2022-09-28T20:51:28.465Z,9.51
2022-09-28T20:56:37.899Z,9.47
2022-09-28T21:01:40.783Z,9.40
2022-09-28T21:06:43.383Z,9.33
2022-09-28T21:11:45.187Z,9.27
2022-09-28T21:16:46.929Z,9.21
2022-09-28T21:21:48.851Z,9.17
2022-09-28T21:26:50.685Z,9.13
2022-09-28T21:31:52.577Z,9.07
2022-09-28T21:36:54.875Z,9.02
2022-09-28T21:41:56.783Z,8.98
2022-09-28T21:46:58.903Z,8.93
2022-09-28T21:52:02.092Z,8.87
2022-09-28T21:57:03.862Z,8.84
2022-09-28T22:02:06.634Z,8.82
2022-09-28T22:07:08.779Z,8.81
2022-09-28T22:12:10.731Z,8.80
2022-09-28T22:17:12.513Z,8.80
2022-09-28T22:22:14.482Z,8.79
2022-09-28T22:27:16.291Z,8.76
2022-09-28T22:32:18.071Z,8.75
2022-09-28T22:37:19.818Z,8.74
2022-09-28T22:42:21.907Z,8.74
2022-09-28T22:47:23.675Z,8.77
2022-09-28T22:52:25.491Z,8.82
2022-09-28T22:57:27.417Z,8.89
2022-09-28T23:02:29.211Z,8.93
2022-09-28T23:07:31.083Z,8.96
2022-09-28T23:12:35.740Z,9.00
2022-09-28T23:17:37.723Z,9.02
2022-09-28T23:22:39.509Z,9.03
2022-09-28T23:27:46.369Z,9.03
2022-09-28T23:32:48.197Z,9.01
2022-09-28T23:37:51.838Z,8.99
2022-09-28T23:42:53.670Z,8.96
2022-09-28T23:47:55.992Z,8.93
2022-09-28T23:52:57.841Z,8.94
2022-09-28T23:57:59.657Z,8.93
